sensor_id;sensor_type;location;lat;lon;timestamp;P1;durP1;ratioP1;P2;durP2;ratioP2
75160;SDS011;63738;50.096;8.716;2022-11-15T00:00:48;2.53;;;0.00;;
75160;SDS011;63738;50.096;8.716;2022-11-15T00:03:19;2.78;;;0.00;;
75160;SDS011;63738;50.096;8.716;2022-11-15T00:05:46;2.45;;;0.00;;
75160;SDS011;63738;50.096;8.716;2022-11-15T00:08:12;4.25;;;0.00;;
75160;SDS011;63738;50.096;8.716;2022-11-15T00:10:38;2.17;;;0.00;;
75160;SDS011;63738;50.096;8.716;2022-11-15T00:13:08;1.33;;;0.00;;
75160;SDS011;63738;50.096;8.716;2022-11-15T00:15:35;2.40;;;0.00;;
75160;SDS011;63738;50.096;8.716;2022-11-15T00:18:05;1.83;;;0.00;;
75160;SDS011;63738;50.096;8.716;2022-11-15T00:20:36;2.03;;;0.00;;
75160;SDS011;63738;50.096;8.716;2022-11-15T00:23:05;1.58;;;0.00;;
75160;SDS011;63738;50.096;8.716;2022-11-15T00:25:31;0.93;;;0.00;;
75160;SDS011;63738;50.096;8.716;2022-11-15T00:27:57;1.05;;;0.00;;
75160;SDS011;63738;50.096;8.716;2022-11-15T00:30:24;1.95;;;0.00;;
75160;SDS011;63738;50.096;8.716;2022-11-15T00:32:49;2.45;;;0.00;;
75160;SDS011;63738;50.096;8.716;2022-11-15T00:35:15;2.08;;;0.00;;
75160;SDS011;63738;50.096;8.716;2022-11-15T00:37:41;2.08;;;0.00;;
75160;SDS011;63738;50.096;8.716;2022-11-15T00:40:07;1.48;;;0.00;;
75160;SDS011;63738;50.096;8.716;2022-11-15T00:42:33;2.15;;;0.00;;
75160;SDS011;63738;50.096;8.716;2022-11-15T00:44:59;2.58;;;0.00;;
75160;SDS011;63738;50.096;8.716;2022-11-15T00:47:24;1.83;;;0.00;;
75160;SDS011;63738;50.096;8.716;2022-11-15T00:49:50;1.85;;;0.00;;
75160;SDS011;63738;50.096;8.716;2022-11-15T00:52:15;2.53;;;0.00;;
75160;SDS011;63738;50.096;8.716;2022-11-15T00:54:41;1.17;;;0.00;;
75160;SDS011;63738;50.096;8.716;2022-11-15T00:57:07;1.67;;;0.00;;
75160;SDS011;63738;50.096;8.716;2022-11-15T00:59:32;1.02;;;0.00;;
75160;SDS011;63738;50.096;8.716;2022-11-15T01:01:58;1.70;;;0.00;;
75160;SDS011;63738;50.096;8.716;2022-11-15T01:04:23;1.85;;;0.00;;
75160;SDS011;63738;50.096;8.716;2022-11-15T01:06:49;1.23;;;0.00;;
75160;SDS011;63738;50.096;8.716;2022-11-15T01:09:15;3.63;;;0.00;;
75160;SDS011;63738;50.096;8.716;2022-11-15T01:11:40;2.13;;;0.00;;
75160;SDS011;63738;50.096;8.716;2022-11-15T01:14:06;1.45;;;0.00;;
75160;SDS011;63738;50.096;8.716;2022-11-15T01:16:32;3.03;;;0.00;;
75160;SDS011;63738;50.096;8.716;2022-11-15T01:18:58;1.80;;;0.00;;
75160;SDS011;63738;50.096;8.716;2022-11-15T01:21:24;2.17;;;0.00;;
75160;SDS011;63738;50.096;8.716;2022-11-15T01:23:52;1.67;;;0.00;;
75160;SDS011;63738;50.096;8.716;2022-11-15T01:26:19;2.15;;;0.00;;
75160;SDS011;63738;50.096;8.716;2022-11-15T01:28:44;2.97;;;0.00;;
75160;SDS011;63738;50.096;8.716;2022-11-15T01:31:12;1.90;;;0.00;;
75160;SDS011;63738;50.096;8.716;2022-11-15T01:33:39;1.55;;;0.00;;
75160;SDS011;63738;50.096;8.716;2022-11-15T01:36:06;1.15;;;0.00;;
75160;SDS011;63738;50.096;8.716;2022-11-15T01:38:33;3.00;;;0.00;;
75160;SDS011;63738;50.096;8.716;2022-11-15T01:40:59;1.23;;;0.00;;
75160;SDS011;63738;50.096;8.716;2022-11-15T01:43:26;1.70;;;0.00;;
75160;SDS011;63738;50.096;8.716;2022-11-15T01:46:04;2.72;;;0.00;;
75160;SDS011;63738;50.096;8.716;2022-11-15T01:48:46;1.38;;;0.00;;
75160;SDS011;63738;50.096;8.716;2022-11-15T01:51:13;1.38;;;0.00;;
75160;SDS011;63738;50.096;8.716;2022-11-15T01:53:41;3.10;;;0.00;;
75160;SDS011;63738;50.096;8.716;2022-11-15T01:56:13;2.17;;;0.00;;
75160;SDS011;63738;50.096;8.716;2022-11-15T01:58:45;2.28;;;0.00;;
75160;SDS011;63738;50.096;8.716;2022-11-15T02:01:12;0.98;;;0.00;;
75160;SDS011;63738;50.096;8.716;2022-11-15T02:03:41;1.73;;;0.00;;
75160;SDS011;63738;50.096;8.716;2022-11-15T02:06:11;4.25;;;0.00;;
75160;SDS011;63738;50.096;8.716;2022-11-15T02:08:37;2.90;;;0.00;;
75160;SDS011;63738;50.096;8.716;2022-11-15T02:11:04;4.20;;;0.00;;
75160;SDS011;63738;50.096;8.716;2022-11-15T02:13:33;2.65;;;0.00;;
75160;SDS011;63738;50.096;8.716;2022-11-15T02:18:40;2.28;;;0.03;;
75160;SDS011;63738;50.096;8.716;2022-11-15T02:21:26;2.67;;;0.00;;
75160;SDS011;63738;50.096;8.716;2022-11-15T02:30:21;3.10;;;0.00;;
75160;SDS011;63738;50.096;8.716;2022-11-15T02:35:50;4.15;;;0.03;;
75160;SDS011;63738;50.096;8.716;2022-11-15T02:38:44;1.88;;;0.00;;
75160;SDS011;63738;50.096;8.716;2022-11-15T02:41:24;3.08;;;0.00;;
75160;SDS011;63738;50.096;8.716;2022-11-15T02:46:53;3.63;;;0.00;;
75160;SDS011;63738;50.096;8.716;2022-11-15T02:52:16;3.13;;;0.00;;
75160;SDS011;63738;50.096;8.716;2022-11-15T02:54:52;3.15;;;0.00;;
75160;SDS011;63738;50.096;8.716;2022-11-15T02:57:35;3.92;;;0.00;;
75160;SDS011;63738;50.096;8.716;2022-11-15T03:00:17;1.92;;;0.00;;
75160;SDS011;63738;50.096;8.716;2022-11-15T03:11:07;3.15;;;0.00;;
75160;SDS011;63738;50.096;8.716;2022-11-15T03:13:40;1.27;;;0.00;;
75160;SDS011;63738;50.096;8.716;2022-11-15T03:16:20;3.90;;;0.05;;
75160;SDS011;63738;50.096;8.716;2022-11-15T03:18:59;5.50;;;0.05;;
75160;SDS011;63738;50.096;8.716;2022-11-15T03:21:46;2.78;;;0.00;;
75160;SDS011;63738;50.096;8.716;2022-11-15T03:24:13;2.92;;;0.00;;
75160;SDS011;63738;50.096;8.716;2022-11-15T03:26:40;2.85;;;0.00;;
75160;SDS011;63738;50.096;8.716;2022-11-15T03:29:09;2.22;;;0.00;;
75160;SDS011;63738;50.096;8.716;2022-11-15T03:31:49;2.47;;;0.00;;
75160;SDS011;63738;50.096;8.716;2022-11-15T03:34:31;3.38;;;0.00;;
75160;SDS011;63738;50.096;8.716;2022-11-15T03:37:04;4.07;;;0.00;;
75160;SDS011;63738;50.096;8.716;2022-11-15T03:39:30;3.03;;;0.00;;
75160;SDS011;63738;50.096;8.716;2022-11-15T03:42:08;2.17;;;0.00;;
75160;SDS011;63738;50.096;8.716;2022-11-15T03:47:20;5.07;;;0.00;;
75160;SDS011;63738;50.096;8.716;2022-11-15T03:50:03;1.77;;;0.00;;
75160;SDS011;63738;50.096;8.716;2022-11-15T03:52:35;3.22;;;0.00;;
75160;SDS011;63738;50.096;8.716;2022-11-15T03:55:03;4.43;;;0.10;;
75160;SDS011;63738;50.096;8.716;2022-11-15T03:57:30;5.63;;;0.00;;
75160;SDS011;63738;50.096;8.716;2022-11-15T03:59:56;4.13;;;0.10;;
75160;SDS011;63738;50.096;8.716;2022-11-15T04:02:22;2.35;;;0.00;;
75160;SDS011;63738;50.096;8.716;2022-11-15T04:04:47;2.42;;;0.00;;
75160;SDS011;63738;50.096;8.716;2022-11-15T04:07:13;2.15;;;0.00;;
75160;SDS011;63738;50.096;8.716;2022-11-15T04:09:38;1.42;;;0.00;;
75160;SDS011;63738;50.096;8.716;2022-11-15T04:12:24;2.78;;;0.00;;
75160;SDS011;63738;50.096;8.716;2022-11-15T04:14:56;2.25;;;0.00;;
75160;SDS011;63738;50.096;8.716;2022-11-15T04:17:32;0.85;;;0.00;;
75160;SDS011;63738;50.096;8.716;2022-11-15T04:20:06;1.15;;;0.00;;
75160;SDS011;63738;50.096;8.716;2022-11-15T04:22:53;2.00;;;0.00;;
75160;SDS011;63738;50.096;8.716;2022-11-15T04:25:41;2.20;;;0.00;;
75160;SDS011;63738;50.096;8.716;2022-11-15T04:28:08;2.13;;;0.00;;
75160;SDS011;63738;50.096;8.716;2022-11-15T04:30:34;3.08;;;0.00;;
75160;SDS011;63738;50.096;8.716;2022-11-15T04:33:00;2.08;;;0.00;;
75160;SDS011;63738;50.096;8.716;2022-11-15T04:35:26;1.67;;;0.00;;
75160;SDS011;63738;50.096;8.716;2022-11-15T04:37:52;2.50;;;0.00;;
75160;SDS011;63738;50.096;8.716;2022-11-15T04:40:18;2.05;;;0.00;;
75160;SDS011;63738;50.096;8.716;2022-11-15T04:42:44;3.78;;;0.00;;
75160;SDS011;63738;50.096;8.716;2022-11-15T04:45:09;1.02;;;0.00;;
75160;SDS011;63738;50.096;8.716;2022-11-15T04:47:35;2.92;;;0.00;;
75160;SDS011;63738;50.096;8.716;2022-11-15T04:50:01;1.33;;;0.00;;
75160;SDS011;63738;50.096;8.716;2022-11-15T04:54:53;1.40;;;0.00;;
75160;SDS011;63738;50.096;8.716;2022-11-15T04:57:18;1.17;;;0.00;;
75160;SDS011;63738;50.096;8.716;2022-11-15T04:59:44;4.10;;;0.00;;
75160;SDS011;63738;50.096;8.716;2022-11-15T05:02:09;1.55;;;0.00;;
75160;SDS011;63738;50.096;8.716;2022-11-15T05:04:35;1.27;;;0.00;;
75160;SDS011;63738;50.096;8.716;2022-11-15T05:07:01;1.08;;;0.00;;
75160;SDS011;63738;50.096;8.716;2022-11-15T05:09:27;1.33;;;0.00;;
75160;SDS011;63738;50.096;8.716;2022-11-15T05:11:52;1.63;;;0.00;;
75160;SDS011;63738;50.096;8.716;2022-11-15T05:14:18;1.65;;;0.00;;
75160;SDS011;63738;50.096;8.716;2022-11-15T05:16:43;1.65;;;0.00;;
75160;SDS011;63738;50.096;8.716;2022-11-15T05:19:09;2.63;;;0.00;;
75160;SDS011;63738;50.096;8.716;2022-11-15T05:21:35;1.08;;;0.00;;
75160;SDS011;63738;50.096;8.716;2022-11-15T05:24:01;1.80;;;0.00;;
75160;SDS011;63738;50.096;8.716;2022-11-15T05:26:26;3.10;;;0.00;;
75160;SDS011;63738;50.096;8.716;2022-11-15T05:28:53;1.10;;;0.00;;
75160;SDS011;63738;50.096;8.716;2022-11-15T05:31:20;8.60;;;0.57;;
75160;SDS011;63738;50.096;8.716;2022-11-15T05:33:46;15.45;;;1.70;;
75160;SDS011;63738;50.096;8.716;2022-11-15T05:36:13;12.98;;;1.67;;
75160;SDS011;63738;50.096;8.716;2022-11-15T05:38:46;19.45;;;4.55;;
75160;SDS011;63738;50.096;8.716;2022-11-15T05:41:13;50.50;;;12.23;;
75160;SDS011;63738;50.096;8.716;2022-11-15T05:43:40;32.88;;;6.93;;
75160;SDS011;63738;50.096;8.716;2022-11-15T05:46:07;8.55;;;0.70;;
75160;SDS011;63738;50.096;8.716;2022-11-15T05:48:34;6.28;;;0.47;;
75160;SDS011;63738;50.096;8.716;2022-11-15T05:51:04;3.63;;;0.10;;
75160;SDS011;63738;50.096;8.716;2022-11-15T05:53:31;3.45;;;0.00;;
75160;SDS011;63738;50.096;8.716;2022-11-15T05:58:23;2.28;;;0.00;;
75160;SDS011;63738;50.096;8.716;2022-11-15T06:00:48;3.20;;;0.00;;
75160;SDS011;63738;50.096;8.716;2022-11-15T06:03:14;4.28;;;0.20;;
75160;SDS011;63738;50.096;8.716;2022-11-15T06:05:40;6.15;;;0.17;;
75160;SDS011;63738;50.096;8.716;2022-11-15T06:08:05;3.42;;;0.10;;
75160;SDS011;63738;50.096;8.716;2022-11-15T06:10:32;2.60;;;0.00;;
75160;SDS011;63738;50.096;8.716;2022-11-15T06:12:59;4.70;;;0.00;;
75160;SDS011;63738;50.096;8.716;2022-11-15T06:15:26;2.10;;;0.00;;
75160;SDS011;63738;50.096;8.716;2022-11-15T06:17:51;1.15;;;0.00;;
75160;SDS011;63738;50.096;8.716;2022-11-15T06:20:22;2.35;;;0.00;;
75160;SDS011;63738;50.096;8.716;2022-11-15T06:25:13;3.58;;;0.00;;
75160;SDS011;63738;50.096;8.716;2022-11-15T06:27:39;7.90;;;0.93;;
75160;SDS011;63738;50.096;8.716;2022-11-15T06:30:05;19.67;;;4.40;;
75160;SDS011;63738;50.096;8.716;2022-11-15T06:32:31;5.25;;;0.57;;
75160;SDS011;63738;50.096;8.716;2022-11-15T06:34:56;15.93;;;2.55;;
75160;SDS011;63738;50.096;8.716;2022-11-15T06:37:22;34.03;;;7.63;;
75160;SDS011;63738;50.096;8.716;2022-11-15T06:39:47;39.58;;;9.50;;
75160;SDS011;63738;50.096;8.716;2022-11-15T06:42:13;44.28;;;10.93;;
75160;SDS011;63738;50.096;8.716;2022-11-15T06:44:38;20.35;;;4.25;;
75160;SDS011;63738;50.096;8.716;2022-11-15T06:47:04;9.75;;;0.93;;
75160;SDS011;63738;50.096;8.716;2022-11-15T06:49:29;3.97;;;0.10;;
75160;SDS011;63738;50.096;8.716;2022-11-15T06:51:55;1.90;;;0.00;;
75160;SDS011;63738;50.096;8.716;2022-11-15T06:54:20;1.23;;;0.00;;
75160;SDS011;63738;50.096;8.716;2022-11-15T06:59:12;1.60;;;0.00;;
75160;SDS011;63738;50.096;8.716;2022-11-15T07:01:38;2.15;;;0.00;;
75160;SDS011;63738;50.096;8.716;2022-11-15T07:04:03;3.22;;;0.00;;
75160;SDS011;63738;50.096;8.716;2022-11-15T07:06:29;2.58;;;0.00;;
75160;SDS011;63738;50.096;8.716;2022-11-15T07:08:55;2.97;;;0.10;;
75160;SDS011;63738;50.096;8.716;2022-11-15T07:11:20;2.35;;;0.00;;
75160;SDS011;63738;50.096;8.716;2022-11-15T07:13:46;3.53;;;0.00;;
75160;SDS011;63738;50.096;8.716;2022-11-15T07:16:11;4.88;;;0.08;;
75160;SDS011;63738;50.096;8.716;2022-11-15T07:18:37;2.92;;;0.00;;
75160;SDS011;63738;50.096;8.716;2022-11-15T07:21:05;2.30;;;0.00;;
75160;SDS011;63738;50.096;8.716;2022-11-15T07:23:32;2.30;;;0.00;;
75160;SDS011;63738;50.096;8.716;2022-11-15T07:26:01;4.45;;;0.10;;
75160;SDS011;63738;50.096;8.716;2022-11-15T07:28:26;1.95;;;0.00;;
75160;SDS011;63738;50.096;8.716;2022-11-15T07:30:53;2.10;;;0.00;;
75160;SDS011;63738;50.096;8.716;2022-11-15T07:33:18;5.72;;;0.00;;
75160;SDS011;63738;50.096;8.716;2022-11-15T07:35:44;1.27;;;0.00;;
75160;SDS011;63738;50.096;8.716;2022-11-15T07:38:13;1.73;;;0.00;;
75160;SDS011;63738;50.096;8.716;2022-11-15T07:40:39;1.50;;;0.00;;
75160;SDS011;63738;50.096;8.716;2022-11-15T07:43:06;2.95;;;0.10;;
75160;SDS011;63738;50.096;8.716;2022-11-15T07:45:32;2.83;;;0.03;;
75160;SDS011;63738;50.096;8.716;2022-11-15T07:47:59;3.45;;;0.00;;
75160;SDS011;63738;50.096;8.716;2022-11-15T07:50:25;4.57;;;0.00;;
75160;SDS011;63738;50.096;8.716;2022-11-15T07:55:21;3.03;;;0.00;;
75160;SDS011;63738;50.096;8.716;2022-11-15T07:57:47;2.88;;;0.00;;
75160;SDS011;63738;50.096;8.716;2022-11-15T08:00:13;2.08;;;0.00;;
75160;SDS011;63738;50.096;8.716;2022-11-15T08:05:04;3.90;;;0.00;;
75160;SDS011;63738;50.096;8.716;2022-11-15T08:07:30;1.55;;;0.00;;
75160;SDS011;63738;50.096;8.716;2022-11-15T08:09:57;1.80;;;0.00;;
75160;SDS011;63738;50.096;8.716;2022-11-15T08:12:23;1.27;;;0.00;;
75160;SDS011;63738;50.096;8.716;2022-11-15T08:14:49;1.35;;;0.00;;
75160;SDS011;63738;50.096;8.716;2022-11-15T08:17:15;3.60;;;0.00;;
75160;SDS011;63738;50.096;8.716;2022-11-15T08:19:40;1.15;;;0.00;;
75160;SDS011;63738;50.096;8.716;2022-11-15T08:22:06;1.10;;;0.00;;
75160;SDS011;63738;50.096;8.716;2022-11-15T08:24:32;1.85;;;0.00;;
75160;SDS011;63738;50.096;8.716;2022-11-15T08:29:24;2.90;;;0.00;;
75160;SDS011;63738;50.096;8.716;2022-11-15T08:31:50;0.70;;;0.00;;
75160;SDS011;63738;50.096;8.716;2022-11-15T08:34:16;3.10;;;0.00;;
75160;SDS011;63738;50.096;8.716;2022-11-15T08:36:41;2.17;;;0.00;;
75160;SDS011;63738;50.096;8.716;2022-11-15T08:39:09;1.98;;;0.00;;
75160;SDS011;63738;50.096;8.716;2022-11-15T08:41:37;1.58;;;0.00;;
75160;SDS011;63738;50.096;8.716;2022-11-15T08:44:03;2.83;;;0.00;;
75160;SDS011;63738;50.096;8.716;2022-11-15T08:46:29;1.88;;;0.00;;
75160;SDS011;63738;50.096;8.716;2022-11-15T08:48:55;2.53;;;0.00;;
75160;SDS011;63738;50.096;8.716;2022-11-15T08:51:20;1.67;;;0.00;;
75160;SDS011;63738;50.096;8.716;2022-11-15T08:53:46;2.95;;;0.00;;
75160;SDS011;63738;50.096;8.716;2022-11-15T08:56:13;0.95;;;0.00;;
75160;SDS011;63738;50.096;8.716;2022-11-15T08:58:40;2.08;;;0.00;;
75160;SDS011;63738;50.096;8.716;2022-11-15T09:01:06;2.47;;;0.00;;
75160;SDS011;63738;50.096;8.716;2022-11-15T09:03:39;2.10;;;0.00;;
75160;SDS011;63738;50.096;8.716;2022-11-15T09:06:05;1.85;;;0.00;;
75160;SDS011;63738;50.096;8.716;2022-11-15T09:08:31;1.25;;;0.00;;
75160;SDS011;63738;50.096;8.716;2022-11-15T09:10:56;1.38;;;0.00;;
75160;SDS011;63738;50.096;8.716;2022-11-15T09:13:22;4.70;;;0.00;;
75160;SDS011;63738;50.096;8.716;2022-11-15T09:15:47;4.93;;;0.10;;
75160;SDS011;63738;50.096;8.716;2022-11-15T09:18:13;1.60;;;0.00;;
75160;SDS011;63738;50.096;8.716;2022-11-15T09:20:39;1.83;;;0.00;;
75160;SDS011;63738;50.096;8.716;2022-11-15T09:23:04;1.45;;;0.00;;
75160;SDS011;63738;50.096;8.716;2022-11-15T09:25:31;2.65;;;0.00;;
75160;SDS011;63738;50.096;8.716;2022-11-15T09:27:57;2.88;;;0.00;;
75160;SDS011;63738;50.096;8.716;2022-11-15T09:30:23;1.48;;;0.00;;
75160;SDS011;63738;50.096;8.716;2022-11-15T09:32:49;2.78;;;0.00;;
75160;SDS011;63738;50.096;8.716;2022-11-15T09:35:15;1.10;;;0.00;;
75160;SDS011;63738;50.096;8.716;2022-11-15T09:37:40;2.95;;;0.00;;
75160;SDS011;63738;50.096;8.716;2022-11-15T09:40:08;1.65;;;0.00;;
75160;SDS011;63738;50.096;8.716;2022-11-15T09:45:21;1.75;;;0.00;;
75160;SDS011;63738;50.096;8.716;2022-11-15T09:50:59;2.50;;;0.00;;
75160;SDS011;63738;50.096;8.716;2022-11-15T09:56:42;1.55;;;0.00;;
75160;SDS011;63738;50.096;8.716;2022-11-15T09:59:19;2.58;;;0.00;;
75160;SDS011;63738;50.096;8.716;2022-11-15T10:02:01;6.40;;;0.00;;
75160;SDS011;63738;50.096;8.716;2022-11-15T10:04:52;3.42;;;0.00;;
75160;SDS011;63738;50.096;8.716;2022-11-15T10:07:27;5.90;;;0.10;;
75160;SDS011;63738;50.096;8.716;2022-11-15T10:10:09;2.15;;;0.00;;
75160;SDS011;63738;50.096;8.716;2022-11-15T10:12:57;1.45;;;0.00;;
75160;SDS011;63738;50.096;8.716;2022-11-15T10:15:24;3.85;;;0.00;;
75160;SDS011;63738;50.096;8.716;2022-11-15T10:20:57;4.68;;;0.00;;
75160;SDS011;63738;50.096;8.716;2022-11-15T10:23:24;9.15;;;1.17;;
75160;SDS011;63738;50.096;8.716;2022-11-15T10:25:55;6.50;;;0.50;;
75160;SDS011;63738;50.096;8.716;2022-11-15T10:28:29;5.07;;;0.10;;
75160;SDS011;63738;50.096;8.716;2022-11-15T10:30:57;3.45;;;0.00;;
75160;SDS011;63738;50.096;8.716;2022-11-15T10:41:19;1.50;;;0.00;;
75160;SDS011;63738;50.096;8.716;2022-11-15T10:46:40;1.42;;;0.00;;
75160;SDS011;63738;50.096;8.716;2022-11-15T10:49:14;1.10;;;0.00;;
75160;SDS011;63738;50.096;8.716;2022-11-15T10:51:47;0.73;;;0.00;;
75160;SDS011;63738;50.096;8.716;2022-11-15T10:54:21;1.85;;;0.00;;
75160;SDS011;63738;50.096;8.716;2022-11-15T10:56:50;1.80;;;0.00;;
75160;SDS011;63738;50.096;8.716;2022-11-15T10:59:22;1.75;;;0.00;;
75160;SDS011;63738;50.096;8.716;2022-11-15T11:01:51;1.42;;;0.00;;
75160;SDS011;63738;50.096;8.716;2022-11-15T11:06:48;1.77;;;0.00;;
75160;SDS011;63738;50.096;8.716;2022-11-15T11:09:32;1.45;;;0.00;;
75160;SDS011;63738;50.096;8.716;2022-11-15T11:12:03;1.02;;;0.00;;
75160;SDS011;63738;50.096;8.716;2022-11-15T11:14:31;1.50;;;0.00;;
75160;SDS011;63738;50.096;8.716;2022-11-15T11:19:37;2.83;;;0.00;;
75160;SDS011;63738;50.096;8.716;2022-11-15T11:22:32;1.40;;;0.00;;
75160;SDS011;63738;50.096;8.716;2022-11-15T11:28:02;0.75;;;0.00;;
75160;SDS011;63738;50.096;8.716;2022-11-15T11:33:38;1.65;;;0.00;;
75160;SDS011;63738;50.096;8.716;2022-11-15T11:36:19;1.83;;;0.00;;
75160;SDS011;63738;50.096;8.716;2022-11-15T11:38:56;4.53;;;0.00;;
75160;SDS011;63738;50.096;8.716;2022-11-15T11:44:30;2.53;;;0.00;;
75160;SDS011;63738;50.096;8.716;2022-11-15T11:47:09;1.98;;;0.00;;
75160;SDS011;63738;50.096;8.716;2022-11-15T11:53:01;1.80;;;0.00;;
75160;SDS011;63738;50.096;8.716;2022-11-15T11:55:15;0.75;;;0.00;;
75160;SDS011;63738;50.096;8.716;2022-11-15T11:58:23;1.67;;;0.00;;
75160;SDS011;63738;50.096;8.716;2022-11-15T12:01:17;2.88;;;0.00;;
75160;SDS011;63738;50.096;8.716;2022-11-15T12:03:46;1.52;;;0.00;;
75160;SDS011;63738;50.096;8.716;2022-11-15T12:06:30;2.15;;;0.00;;
75160;SDS011;63738;50.096;8.716;2022-11-15T12:17:16;1.10;;;0.00;;
75160;SDS011;63738;50.096;8.716;2022-11-15T12:19:46;1.05;;;0.00;;
75160;SDS011;63738;50.096;8.716;2022-11-15T12:24:39;1.25;;;0.00;;
75160;SDS011;63738;50.096;8.716;2022-11-15T12:27:14;0.75;;;0.00;;
75160;SDS011;63738;50.096;8.716;2022-11-15T12:29:49;0.75;;;0.00;;
75160;SDS011;63738;50.096;8.716;2022-11-15T12:32:30;1.30;;;0.00;;
75160;SDS011;63738;50.096;8.716;2022-11-15T12:34:59;1.65;;;0.00;;
75160;SDS011;63738;50.096;8.716;2022-11-15T12:37:33;2.47;;;0.00;;
75160;SDS011;63738;50.096;8.716;2022-11-15T12:45:22;1.73;;;0.00;;
75160;SDS011;63738;50.096;8.716;2022-11-15T13:07:05;0.63;;;0.00;;
75160;SDS011;63738;50.096;8.716;2022-11-15T13:20:28;1.63;;;0.00;;
75160;SDS011;63738;50.096;8.716;2022-11-15T13:30:39;1.75;;;0.00;;
75160;SDS011;63738;50.096;8.716;2022-11-15T13:33:16;0.85;;;0.00;;
75160;SDS011;63738;50.096;8.716;2022-11-15T13:35:50;3.67;;;0.00;;
75160;SDS011;63738;50.096;8.716;2022-11-15T13:40:59;1.42;;;0.00;;
75160;SDS011;63738;50.096;8.716;2022-11-15T13:43:36;2.28;;;0.00;;
75160;SDS011;63738;50.096;8.716;2022-11-15T13:48:30;0.40;;;0.00;;
75160;SDS011;63738;50.096;8.716;2022-11-15T13:50:58;0.60;;;0.00;;
75160;SDS011;63738;50.096;8.716;2022-11-15T13:53:25;2.00;;;0.00;;
75160;SDS011;63738;50.096;8.716;2022-11-15T13:55:50;1.23;;;0.00;;
75160;SDS011;63738;50.096;8.716;2022-11-15T13:58:19;1.17;;;0.00;;
75160;SDS011;63738;50.096;8.716;2022-11-15T14:00:45;0.38;;;0.00;;
75160;SDS011;63738;50.096;8.716;2022-11-15T14:03:27;2.83;;;0.00;;
75160;SDS011;63738;50.096;8.716;2022-11-15T14:06:03;0.65;;;0.00;;
75160;SDS011;63738;50.096;8.716;2022-11-15T14:08:37;0.35;;;0.00;;
75160;SDS011;63738;50.096;8.716;2022-11-15T14:11:23;0.88;;;0.00;;
75160;SDS011;63738;50.096;8.716;2022-11-15T14:14:03;0.30;;;0.00;;
75160;SDS011;63738;50.096;8.716;2022-11-15T14:16:34;1.85;;;0.00;;
75160;SDS011;63738;50.096;8.716;2022-11-15T14:19:01;3.50;;;0.00;;
75160;SDS011;63738;50.096;8.716;2022-11-15T14:21:28;1.50;;;0.00;;
75160;SDS011;63738;50.096;8.716;2022-11-15T14:26:38;2.50;;;0.00;;
75160;SDS011;63738;50.096;8.716;2022-11-15T14:31:53;1.20;;;0.00;;
75160;SDS011;63738;50.096;8.716;2022-11-15T14:34:31;1.15;;;0.00;;
75160;SDS011;63738;50.096;8.716;2022-11-15T14:36:57;2.38;;;0.00;;
75160;SDS011;63738;50.096;8.716;2022-11-15T14:41:50;0.88;;;0.00;;
75160;SDS011;63738;50.096;8.716;2022-11-15T14:46:43;1.98;;;0.00;;
75160;SDS011;63738;50.096;8.716;2022-11-15T14:49:09;0.52;;;0.00;;
75160;SDS011;63738;50.096;8.716;2022-11-15T14:51:34;0.38;;;0.00;;
75160;SDS011;63738;50.096;8.716;2022-11-15T14:54:00;1.83;;;0.00;;
75160;SDS011;63738;50.096;8.716;2022-11-15T14:56:26;0.73;;;0.00;;
75160;SDS011;63738;50.096;8.716;2022-11-15T14:58:51;1.85;;;0.00;;
75160;SDS011;63738;50.096;8.716;2022-11-15T15:01:24;1.08;;;0.00;;
75160;SDS011;63738;50.096;8.716;2022-11-15T15:03:50;1.52;;;0.00;;
75160;SDS011;63738;50.096;8.716;2022-11-15T15:06:17;2.22;;;0.00;;
75160;SDS011;63738;50.096;8.716;2022-11-15T15:08:43;1.13;;;0.00;;
75160;SDS011;63738;50.096;8.716;2022-11-15T15:11:15;0.98;;;0.00;;
75160;SDS011;63738;50.096;8.716;2022-11-15T15:13:48;1.45;;;0.00;;
75160;SDS011;63738;50.096;8.716;2022-11-15T15:18:39;0.95;;;0.00;;
75160;SDS011;63738;50.096;8.716;2022-11-15T15:21:18;1.27;;;0.00;;
75160;SDS011;63738;50.096;8.716;2022-11-15T15:23:52;1.10;;;0.00;;
75160;SDS011;63738;50.096;8.716;2022-11-15T15:26:19;1.27;;;0.00;;
75160;SDS011;63738;50.096;8.716;2022-11-15T15:28:45;0.65;;;0.00;;
75160;SDS011;63738;50.096;8.716;2022-11-15T15:31:10;0.70;;;0.00;;
75160;SDS011;63738;50.096;8.716;2022-11-15T15:33:36;0.43;;;0.00;;
75160;SDS011;63738;50.096;8.716;2022-11-15T15:38:28;1.80;;;0.00;;
75160;SDS011;63738;50.096;8.716;2022-11-15T15:40:54;2.35;;;0.00;;
75160;SDS011;63738;50.096;8.716;2022-11-15T15:43:20;1.75;;;0.00;;
75160;SDS011;63738;50.096;8.716;2022-11-15T15:45:45;1.25;;;0.00;;
75160;SDS011;63738;50.096;8.716;2022-11-15T15:48:15;1.20;;;0.00;;
75160;SDS011;63738;50.096;8.716;2022-11-15T15:50:41;3.53;;;0.00;;
75160;SDS011;63738;50.096;8.716;2022-11-15T15:53:09;3.55;;;0.00;;
75160;SDS011;63738;50.096;8.716;2022-11-15T15:55:36;4.53;;;0.00;;
75160;SDS011;63738;50.096;8.716;2022-11-15T15:58:02;2.03;;;0.00;;
75160;SDS011;63738;50.096;8.716;2022-11-15T16:00:28;1.40;;;0.00;;
75160;SDS011;63738;50.096;8.716;2022-11-15T16:02:54;2.58;;;0.00;;
75160;SDS011;63738;50.096;8.716;2022-11-15T16:05:20;1.90;;;0.00;;
75160;SDS011;63738;50.096;8.716;2022-11-15T16:07:46;0.65;;;0.00;;
75160;SDS011;63738;50.096;8.716;2022-11-15T16:10:20;1.33;;;0.00;;
75160;SDS011;63738;50.096;8.716;2022-11-15T16:12:51;1.77;;;0.00;;
75160;SDS011;63738;50.096;8.716;2022-11-15T16:15:19;1.55;;;0.00;;
75160;SDS011;63738;50.096;8.716;2022-11-15T16:17:49;1.30;;;0.00;;
75160;SDS011;63738;50.096;8.716;2022-11-15T16:20:31;2.38;;;0.00;;
75160;SDS011;63738;50.096;8.716;2022-11-15T16:23:12;0.90;;;0.00;;
75160;SDS011;63738;50.096;8.716;2022-11-15T16:25:44;1.25;;;0.00;;
75160;SDS011;63738;50.096;8.716;2022-11-15T16:33:29;0.85;;;0.00;;
75160;SDS011;63738;50.096;8.716;2022-11-15T16:35:55;1.23;;;0.00;;
75160;SDS011;63738;50.096;8.716;2022-11-15T16:38:21;0.80;;;0.00;;
75160;SDS011;63738;50.096;8.716;2022-11-15T16:40:47;1.65;;;0.00;;
75160;SDS011;63738;50.096;8.716;2022-11-15T16:43:12;0.68;;;0.00;;
75160;SDS011;63738;50.096;8.716;2022-11-15T16:45:38;0.73;;;0.00;;
75160;SDS011;63738;50.096;8.716;2022-11-15T16:48:04;0.68;;;0.00;;
75160;SDS011;63738;50.096;8.716;2022-11-15T16:50:31;1.02;;;0.00;;
75160;SDS011;63738;50.096;8.716;2022-11-15T16:53:03;1.10;;;0.00;;
75160;SDS011;63738;50.096;8.716;2022-11-15T16:55:29;1.33;;;0.00;;
75160;SDS011;63738;50.096;8.716;2022-11-15T16:57:55;2.35;;;0.00;;
75160;SDS011;63738;50.096;8.716;2022-11-15T17:00:25;0.98;;;0.00;;
75160;SDS011;63738;50.096;8.716;2022-11-15T17:02:51;1.95;;;0.00;;
75160;SDS011;63738;50.096;8.716;2022-11-15T17:05:18;2.22;;;0.00;;
75160;SDS011;63738;50.096;8.716;2022-11-15T17:07:48;1.15;;;0.00;;
75160;SDS011;63738;50.096;8.716;2022-11-15T17:10:16;1.52;;;0.00;;
75160;SDS011;63738;50.096;8.716;2022-11-15T17:12:42;1.42;;;0.00;;
75160;SDS011;63738;50.096;8.716;2022-11-15T17:15:09;3.00;;;0.00;;
75160;SDS011;63738;50.096;8.716;2022-11-15T17:17:36;2.03;;;0.00;;
75160;SDS011;63738;50.096;8.716;2022-11-15T17:20:02;3.17;;;0.00;;
75160;SDS011;63738;50.096;8.716;2022-11-15T17:22:33;1.65;;;0.00;;
75160;SDS011;63738;50.096;8.716;2022-11-15T17:25:00;1.40;;;0.00;;
75160;SDS011;63738;50.096;8.716;2022-11-15T17:27:26;2.22;;;0.00;;
75160;SDS011;63738;50.096;8.716;2022-11-15T17:29:51;2.58;;;0.00;;
75160;SDS011;63738;50.096;8.716;2022-11-15T17:32:17;1.17;;;0.00;;
75160;SDS011;63738;50.096;8.716;2022-11-15T17:34:43;2.33;;;0.00;;
75160;SDS011;63738;50.096;8.716;2022-11-15T17:37:08;1.60;;;0.00;;
75160;SDS011;63738;50.096;8.716;2022-11-15T17:39:34;4.97;;;0.00;;
75160;SDS011;63738;50.096;8.716;2022-11-15T17:41:59;2.00;;;0.00;;
75160;SDS011;63738;50.096;8.716;2022-11-15T17:44:25;1.13;;;0.00;;